Time;durP1;ratioP1;P1;durP2;ratioP2;P2;SDS_P1;SDS_P2;PMS_P1;PMS_P2;Temp;Humidity;BMP_temperature;BMP_pressure;BME280_temperature;BME280_humidity;BME280_pressure;Samples;Min_cycle;Max_cycle;Signal;HPM_P1;HPM_P2
2023/05/07 00:02:05;;;;;;;7.57;5.37;;;14.20;45.80;;;;;;5078716;28;20500;-60
2023/05/07 00:04:36;;;;;;;6.37;5.20;;;14.20;1.00;;;;;;5078141;28;20468;-60
2023/05/07 00:07:03;;;;;;;7.23;5.90;;;14.20;1.00;;;;;;5078698;28;20948;-60
2023/05/07 00:09:30;;;;;;;8.50;5.50;;;14.20;1.00;;;;;;5077654;28;20469;-60
2023/05/07 00:11:58;;;;;;;7.20;5.80;;;14.20;1.00;;;;;;5078120;28;20470;-60
2023/05/07 00:14:26;;;;;;;7.30;4.97;;;14.20;99.90;;;;;;5078005;28;20489;-60
2023/05/07 00:16:53;;;;;;;6.60;6.00;;;14.20;99.90;;;;;;5078215;28;20547;-60
2023/05/07 00:19:21;;;;;;;6.13;5.53;;;14.10;1.00;;;;;;5078321;28;20874;-60
2023/05/07 00:21:48;;;;;;;8.60;6.30;;;14.10;1.00;;;;;;5078140;28;20465;-60
2023/05/07 00:24:15;;;;;;;5.57;5.07;;;14.10;99.90;;;;;;5077752;28;20555;-60
2023/05/07 00:26:42;;;;;;;6.23;5.63;;;14.00;99.90;;;;;;5077767;28;20561;-60
2023/05/07 00:29:09;;;;;;;8.53;5.37;;;14.00;99.90;;;;;;5077637;28;20467;-60
2023/05/07 00:31:38;;;;;;;6.33;5.10;;;14.00;1.00;;;;;;5077233;28;20496;-60
2023/05/07 00:34:05;;;;;;;5.33;4.83;;;14.00;1.00;;;;;;5077511;28;20555;-59
2023/05/07 00:36:32;;;;;;;5.80;5.20;;;14.00;1.00;;;;;;5077615;28;21003;-60
2023/05/07 00:39:03;;;;;;;5.60;5.10;;;14.00;99.90;;;;;;5077826;28;20535;-60
2023/05/07 00:41:30;;;;;;;6.93;6.23;;;14.00;1.00;;;;;;5077581;28;20928;-59
2023/05/07 00:43:57;;;;;;;8.20;5.00;;;14.10;1.00;;;;;;5077449;28;20436;-60
2023/05/07 00:46:25;;;;;;;6.13;5.63;;;14.00;1.00;;;;;;5077581;28;20436;-60
2023/05/07 00:48:55;;;;;;;6.90;5.30;;;14.10;1.00;;;;;;5077196;28;20468;-59
2023/05/07 00:51:24;;;;;;;5.53;4.83;;;14.10;1.00;;;;;;5077816;28;20493;-59
2023/05/07 00:53:51;;;;;;;6.80;6.10;;;14.00;1.00;;;;;;5077263;28;20473;-60
2023/05/07 00:56:19;;;;;;;5.40;4.90;;;14.00;1.00;;;;;;5077616;28;20493;-60
2023/05/07 00:58:46;;;;;;;6.03;5.40;;;14.10;1.00;;;;;;5077670;28;20557;-58
2023/05/07 01:01:15;;;;;;;5.93;5.33;;;14.10;1.00;;;;;;5076712;28;20476;-60
2023/05/07 01:03:42;;;;;;;7.10;5.60;;;14.00;99.90;;;;;;5076627;28;20461;-60
2023/05/07 01:06:16;;;;;;;5.60;5.10;;;14.00;99.90;;;;;;5076713;28;20560;-58
2023/05/07 01:08:44;;;;;;;6.10;5.43;;;14.00;1.00;;;;;;5077192;28;20774;-60
2023/05/07 01:11:12;;;;;;;5.83;5.23;;;14.00;1.00;;;;;;5077699;28;20503;-60
2023/05/07 01:13:41;;;;;;;5.73;4.70;;;14.00;1.00;;;;;;5076986;28;20461;-58
2023/05/07 01:16:10;;;;;;;6.17;5.00;;;14.00;1.00;;;;;;5076986;28;20493;-59
2023/05/07 01:18:37;;;;;;;5.97;4.53;;;13.90;1.00;;;;;;5077302;28;21021;-58
2023/05/07 01:21:06;;;;;;;5.50;5.00;;;14.00;24.10;;;;;;5077097;28;20544;-59
2023/05/07 01:23:36;;;;;;;6.63;4.90;;;14.00;11.30;;;;;;5076871;28;20800;-60
2023/05/07 01:26:03;;;;;;;6.13;4.90;;;14.00;1.00;;;;;;5076618;28;20458;-60
2023/05/07 01:28:30;;;;;;;6.53;5.77;;;14.00;1.00;;;;;;5077174;28;20461;-60
2023/05/07 01:31:03;;;;;;;6.57;4.87;;;13.90;1.00;;;;;;5076445;28;20579;-58
2023/05/07 01:33:34;;;;;;;5.63;5.10;;;14.00;1.00;;;;;;5076401;28;20460;-60
2023/05/07 01:36:03;;;;;;;6.67;5.60;;;14.00;1.00;;;;;;5076555;28;20493;-56
2023/05/07 01:38:31;;;;;;;8.60;5.37;;;14.00;13.80;;;;;;5077087;28;20472;-60
2023/05/07 01:41:00;;;;;;;5.50;5.00;;;14.00;40.10;;;;;;5077059;28;20514;-60
2023/05/07 01:43:28;;;;;;;5.57;5.07;;;13.90;15.10;;;;;;5068379;28;20548;-59
2023/05/07 01:45:56;;;;;;;9.70;5.33;;;13.90;39.00;;;;;;5077174;28;20464;-59
2023/05/07 01:48:23;;;;;;;6.27;5.67;;;13.90;99.90;;;;;;5076738;28;20504;-60
2023/05/07 01:50:51;;;;;;;6.03;5.47;;;13.90;99.90;;;;;;5076129;28;20461;-60
2023/05/07 01:53:18;;;;;;;6.27;5.37;;;13.80;99.90;;;;;;5076897;28;20484;-60
2023/05/07 01:55:45;;;;;;;6.43;5.70;;;13.80;99.90;;;;;;5076335;28;20592;-60
2023/05/07 01:58:14;;;;;;;5.50;4.97;;;13.70;99.90;;;;;;5076756;28;20905;-60
2023/05/07 02:00:41;;;;;;;6.30;5.10;;;13.70;99.90;;;;;;5076659;28;20552;-60
2023/05/07 02:03:09;;;;;;;6.10;5.30;;;13.70;99.90;;;;;;5076901;28;20861;-59
2023/05/07 02:05:36;;;;;;;5.93;5.13;;;13.70;99.90;;;;;;5077041;28;20457;-60
2023/05/07 02:08:03;;;;;;;5.70;4.67;;;13.70;99.90;;;;;;5076901;28;20608;-60
2023/05/07 02:10:30;;;;;;;5.47;4.90;;;13.70;99.90;;;;;;5076476;28;20544;-60
2023/05/07 02:12:57;;;;;;;8.87;5.07;;;13.70;99.90;;;;;;5076632;28;20752;-60
2023/05/07 02:15:26;;;;;;;5.33;4.83;;;13.70;99.90;;;;;;5077484;28;20499;-60
2023/05/07 02:18:01;;;;;;;6.20;4.83;;;13.70;99.90;;;;;;5080419;28;20443;-60
2023/05/07 02:20:28;;;;;;;5.13;4.63;;;13.70;51.80;;;;;;5079935;28;20940;-60
2023/05/07 02:22:55;;;;;;;6.60;5.33;;;13.60;1.00;;;;;;5080519;28;20774;-60
2023/05/07 02:25:22;;;;;;;6.00;5.13;;;13.70;1.00;;;;;;5080590;28;20522;-60
2023/05/07 02:27:50;;;;;;;4.63;4.03;;;13.60;51.90;;;;;;5080082;28;20464;-60
2023/05/07 02:30:17;;;;;;;7.00;5.27;;;13.60;56.60;;;;;;5085150;28;20494;-60
2023/05/07 02:32:46;;;;;;;5.60;4.67;;;13.60;40.50;;;;;;5100593;28;20730;-60
2023/05/07 02:35:13;;;;;;;5.53;5.00;;;13.60;99.90;;;;;;5100540;28;20495;-60
2023/05/07 02:37:40;;;;;;;4.37;3.90;;;13.60;99.90;;;;;;5099948;28;20558;-60
2023/05/07 02:40:08;;;;;;;6.10;5.20;;;13.50;99.90;;;;;;5100374;28;20466;-60
2023/05/07 02:42:36;;;;;;;6.13;5.00;;;13.50;99.90;;;;;;5100543;28;20460;-60
2023/05/07 02:45:03;;;;;;;8.90;5.10;;;13.40;99.90;;;;;;5100400;28;20907;-60
2023/05/07 02:47:30;;;;;;;4.83;4.33;;;13.40;99.90;;;;;;5100139;28;20464;-60
2023/05/07 02:49:59;;;;;;;6.37;5.00;;;13.30;99.90;;;;;;5100275;28;20881;-60
2023/05/07 02:52:26;;;;;;;5.20;4.70;;;13.40;99.90;;;;;;5100034;28;20471;-60
2023/05/07 02:54:53;;;;;;;5.03;4.57;;;13.30;99.90;;;;;;5100229;28;20551;-60
2023/05/07 02:57:20;;;;;;;5.10;4.20;;;13.30;99.90;;;;;;5100015;28;20460;-60
2023/05/07 02:59:47;;;;;;;6.00;4.67;;;13.30;99.90;;;;;;5099766;28;20467;-60
2023/05/07 03:02:15;;;;;;;7.20;4.73;;;13.30;99.90;;;;;;5099637;28;20464;-60
2023/05/07 03:04:42;;;;;;;6.70;5.00;;;13.20;99.90;;;;;;5100068;28;20460;-60
2023/05/07 03:07:10;;;;;;;5.70;5.10;;;13.20;99.90;;;;;;5099392;28;20550;-60
2023/05/07 03:09:37;;;;;;;5.20;4.70;;;13.10;99.90;;;;;;5099557;28;20541;-60
2023/05/07 03:12:05;;;;;;;5.10;4.60;;;13.00;99.90;;;;;;5088432;28;20473;-60
2023/05/07 03:14:32;;;;;;;5.20;4.70;;;13.00;99.90;;;;;;5084242;28;20473;-60
2023/05/07 03:16:59;;;;;;;5.90;5.40;;;13.10;99.90;;;;;;5079112;28;20495;-59
2023/05/07 03:19:26;;;;;;;6.20;5.60;;;13.00;99.90;;;;;;5079290;28;20503;-60
2023/05/07 03:21:53;;;;;;;5.57;5.07;;;13.00;99.90;;;;;;5079040;28;20436;-60
2023/05/07 03:24:22;;;;;;;7.13;5.63;;;13.10;99.90;;;;;;5079045;28;20973;-60
2023/05/07 03:26:49;;;;;;;6.13;5.10;;;13.00;99.90;;;;;;5078063;28;20457;-60
2023/05/07 03:29:16;;;;;;;5.30;4.80;;;13.00;99.90;;;;;;5079294;28;20458;-60
2023/05/07 03:31:44;;;;;;;5.00;4.60;;;13.00;99.90;;;;;;5078621;28;20532;-60
2023/05/07 03:34:12;;;;;;;6.47;5.30;;;13.00;99.90;;;;;;5078979;28;20510;-60
2023/05/07 03:36:39;;;;;;;5.97;5.33;;;13.00;99.90;;;;;;5078903;28;20496;-60
2023/05/07 03:39:06;;;;;;;6.57;4.73;;;12.90;99.90;;;;;;5079028;28;20461;-59
2023/05/07 03:41:35;;;;;;;5.83;4.90;;;12.90;99.90;;;;;;5078523;28;20515;-60
2023/05/07 03:44:02;;;;;;;4.87;4.43;;;12.90;99.90;;;;;;5078461;28;20461;-60
2023/05/07 03:46:29;;;;;;;8.13;4.90;;;12.80;99.90;;;;;;5078609;28;20463;-60
2023/05/07 03:48:56;;;;;;;5.03;4.53;;;12.90;99.90;;;;;;5078679;28;20461;-59
2023/05/07 03:51:24;;;;;;;5.67;4.80;;;12.90;99.90;;;;;;5079146;28;20442;-60
2023/05/07 03:53:52;;;;;;;6.13;5.10;;;12.80;99.90;;;;;;5078740;28;20461;-60
2023/05/07 03:56:20;;;;;;;5.13;4.63;;;12.90;99.90;;;;;;5078825;28;20464;-60
2023/05/07 03:58:49;;;;;;;5.63;5.13;;;12.80;99.90;;;;;;5078444;28;20466;-57
2023/05/07 04:01:16;;;;;;;5.33;4.80;;;12.90;99.90;;;;;;5078158;28;20552;-60
2023/05/07 04:03:44;;;;;;;8.63;4.93;;;12.90;99.90;;;;;;5078023;28;20465;-60
2023/05/07 04:06:11;;;;;;;6.17;5.30;;;12.90;99.90;;;;;;5078430;28;20722;-60
2023/05/07 04:08:39;;;;;;;5.40;4.70;;;12.80;99.90;;;;;;5077976;28;20490;-59
2023/05/07 04:11:06;;;;;;;6.60;4.67;;;12.80;99.90;;;;;;5078437;28;20526;-60
2023/05/07 04:13:33;;;;;;;5.47;4.10;;;12.70;99.90;;;;;;5077977;28;20508;-60
2023/05/07 04:16:03;;;;;;;5.43;4.93;;;12.70;99.90;;;;;;5078098;28;20489;-60
2023/05/07 04:18:30;;;;;;;4.80;4.30;;;12.70;99.90;;;;;;5078366;28;20933;-60
2023/05/07 04:20:57;;;;;;;5.90;4.53;;;12.60;99.90;;;;;;5078462;28;20484;-60
2023/05/07 04:23:24;;;;;;;4.70;4.13;;;12.60;99.90;;;;;;5078248;28;20458;-60
2023/05/07 04:25:52;;;;;;;4.80;4.30;;;12.50;99.90;;;;;;5077615;28;20461;-60
2023/05/07 04:28:19;;;;;;;6.00;5.13;;;12.50;99.90;;;;;;5077846;28;20468;-60
2023/05/07 04:30:46;;;;;;;5.37;4.80;;;12.50;99.90;;;;;;5077631;28;20511;-60
2023/05/07 04:33:16;;;;;;;5.23;4.20;;;12.50;99.90;;;;;;5078189;28;20560;-60
2023/05/07 04:35:43;;;;;;;6.13;4.47;;;12.40;99.90;;;;;;5078002;28;20538;-60
2023/05/07 04:38:10;;;;;;;5.30;4.80;;;12.50;99.90;;;;;;5077675;28;20515;-60
2023/05/07 04:40:38;;;;;;;6.00;5.50;;;12.60;99.90;;;;;;5077900;28;20555;-60
2023/05/07 04:43:07;;;;;;;5.63;5.13;;;12.70;99.90;;;;;;5077838;28;20773;-60
2023/05/07 04:45:34;;;;;;;7.33;4.50;;;12.80;99.90;;;;;;5077491;28;20460;-59
2023/05/07 04:48:01;;;;;;;5.10;4.60;;;12.90;99.90;;;;;;5077494;28;20479;-59
2023/05/07 04:50:30;;;;;;;7.57;5.33;;;12.90;99.90;;;;;;5069822;28;20894;-59
2023/05/07 04:52:57;;;;;;;7.13;4.70;;;12.90;99.90;;;;;;5077502;28;20552;-60
2023/05/07 04:55:24;;;;;;;5.57;5.00;;;12.90;99.90;;;;;;5078040;28;20453;-60
2023/05/07 04:57:52;;;;;;;4.67;4.23;;;13.00;99.90;;;;;;5077489;28;20499;-60
2023/05/07 05:00:20;;;;;;;5.90;4.33;;;13.00;99.90;;;;;;5077559;28;20729;-60
2023/05/07 05:02:47;;;;;;;5.10;4.60;;;13.10;99.90;;;;;;5095729;28;20438;-60
2023/05/07 05:05:14;;;;;;;6.00;5.23;;;13.20;99.90;;;;;;5097817;28;20562;-60
2023/05/07 05:07:43;;;;;;;4.80;4.40;;;13.20;99.90;;;;;;5097233;28;20467;-60
2023/05/07 05:10:10;;;;;;;5.80;4.87;;;13.30;99.90;;;;;;5097399;28;20885;-60
2023/05/07 05:12:38;;;;;;;5.10;4.60;;;13.30;99.90;;;;;;5097657;28;20560;-60
2023/05/07 05:15:06;;;;;;;5.00;4.60;;;13.50;99.90;;;;;;5097672;28;20799;-60
2023/05/07 05:17:34;;;;;;;6.73;4.90;;;13.50;99.90;;;;;;5096825;28;20492;-60
2023/05/07 05:20:03;;;;;;;5.57;4.77;;;13.60;99.90;;;;;;5097446;28;20634;-60
2023/05/07 05:22:31;;;;;;;9.90;5.30;;;13.60;99.90;;;;;;5097417;28;20489;-60
2023/05/07 05:25:00;;;;;;;5.53;5.03;;;13.60;99.90;;;;;;5097622;28;20562;-60
2023/05/07 05:27:27;;;;;;;7.70;6.10;;;13.70;1.00;;;;;;5097059;28;20810;-60
2023/05/07 05:29:54;;;;;;;5.70;5.10;;;13.70;5.30;;;;;;5097154;28;20488;-60
2023/05/07 05:32:22;;;;;;;5.70;5.10;;;13.80;1.00;;;;;;5097014;28;20465;-60
2023/05/07 05:34:49;;;;;;;5.80;5.30;;;13.90;1.00;;;;;;5097236;28;20576;-60
2023/05/07 05:37:16;;;;;;;6.53;5.93;;;14.00;28.00;;;;;;5097158;28;20488;-60
2023/05/07 05:39:44;;;;;;;6.37;5.57;;;14.00;1.00;;;;;;5096855;28;20459;-60
2023/05/07 05:42:12;;;;;;;8.57;5.40;;;14.10;99.90;;;;;;5097070;28;20525;-60
2023/05/07 05:44:39;;;;;;;8.93;4.73;;;14.20;99.90;;;;;;5097154;28;20460;-60
2023/05/07 05:47:06;;;;;;;6.00;5.40;;;14.30;99.90;;;;;;5097355;28;20774;-60
2023/05/07 05:49:34;;;;;;;6.43;5.73;;;14.40;1.00;;;;;;5096633;28;20442;-60
2023/05/07 05:52:01;;;;;;;8.63;6.70;;;14.50;1.00;;;;;;5100283;28;20459;-60
2023/05/07 05:54:28;;;;;;;7.50;6.80;;;14.70;1.00;;;;;;5101129;28;20461;-60
2023/05/07 05:56:55;;;;;;;5.33;4.70;;;14.80;99.90;;;;;;5101073;28;20494;-60
2023/05/07 05:59:24;;;;;;;9.40;5.30;;;14.80;17.30;;;;;;5101187;28;20831;-59
2023/05/07 06:01:51;;;;;;;5.87;5.27;;;14.90;1.00;;;;;;5100911;28;20460;-59
2023/05/07 06:04:19;;;;;;;8.13;5.60;;;15.10;1.00;;;;;;5100961;28;20456;-60
2023/05/07 06:06:46;;;;;;;4.13;3.73;;;15.20;1.00;;;;;;5099637;28;20518;-59
2023/05/07 06:09:13;;;;;;;5.70;4.10;;;15.30;1.00;;;;;;5099600;28;20459;-60
2023/05/07 06:11:40;;;;;;;3.90;3.50;;;15.40;1.00;;;;;;5099737;28;20426;-59
2023/05/07 06:14:08;;;;;;;5.27;4.00;;;15.60;1.00;;;;;;5100334;28;20445;-59
2023/05/07 06:16:37;;;;;;;3.93;3.53;;;15.60;1.00;;;;;;5100195;28;20579;-59
2023/05/07 06:19:05;;;;;;;4.83;4.07;;;15.70;1.00;;;;;;5100388;28;20464;-59
2023/05/07 06:21:32;;;;;;;5.63;3.73;;;15.80;1.00;;;;;;5099838;28;20513;-59
2023/05/07 06:23:59;;;;;;;4.10;3.70;;;15.90;1.00;;;;;;5100559;28;20505;-59
2023/05/07 06:26:26;;;;;;;5.13;3.47;;;15.90;1.00;;;;;;5100498;28;20848;-59
2023/05/07 06:28:53;;;;;;;4.00;3.60;;;16.10;1.00;;;;;;5098946;28;20435;-59
2023/05/07 06:31:21;;;;;;;3.77;3.43;;;16.30;1.00;;;;;;5099082;28;20476;-59
2023/05/07 06:33:50;;;;;;;6.30;3.83;;;16.50;1.00;;;;;;5098590;28;20486;-59
2023/05/07 06:36:17;;;;;;;4.10;3.70;;;16.80;1.00;;;;;;5098498;28;20463;-59
2023/05/07 06:38:44;;;;;;;4.73;4.10;;;17.00;1.00;;;;;;5098975;28;20899;-55
2023/05/07 06:41:11;;;;;;;5.93;4.10;;;17.10;1.00;;;;;;5098575;28;20464;-59
2023/05/07 06:43:38;;;;;;;4.30;3.90;;;17.10;1.00;;;;;;5099052;28;20547;-59
2023/05/07 06:46:06;;;;;;;6.20;3.70;;;17.20;1.00;;;;;;5100291;28;20893;-57
2023/05/07 06:48:33;;;;;;;4.70;4.20;;;17.20;1.00;;;;;;5100087;28;20464;-57
2023/05/07 06:51:01;;;;;;;5.83;3.50;;;17.30;99.90;;;;;;5100398;28;20460;-59
2023/05/07 06:53:30;;;;;;;4.10;3.70;;;17.30;99.90;;;;;;5099637;28;20464;-58
2023/05/07 06:55:57;;;;;;;5.27;3.40;;;17.30;99.90;;;;;;5099655;28;20464;-58
2023/05/07 06:58:25;;;;;;;8.97;3.10;;;17.30;99.90;;;;;;5099983;28;20587;-57
2023/05/07 07:00:52;;;;;;;3.80;3.50;;;17.40;99.90;;;;;;5099738;28;20567;-59
2023/05/07 07:03:19;;;;;;;4.07;3.67;;;17.40;99.90;;;;;;5098836;28;20499;-58
2023/05/07 07:05:46;;;;;;;3.77;3.47;;;17.30;99.90;;;;;;5099469;28;20533;-58
2023/05/07 07:08:16;;;;;;;5.10;3.93;;;17.50;99.90;;;;;;5099970;28;20461;-59
2023/05/07 07:10:44;;;;;;;3.57;3.27;;;17.80;99.90;;;;;;5099938;28;20471;-58
2023/05/07 07:13:11;;;;;;;4.03;3.40;;;18.00;99.90;;;;;;5099242;28;20809;-57
2023/05/07 07:15:38;;;;;;;3.90;3.00;;;18.20;99.90;;;;;;5099547;28;20457;-58
2023/05/07 07:18:05;;;;;;;4.53;4.00;;;18.40;99.90;;;;;;5099123;28;20492;-56
2023/05/07 07:20:33;;;;;;;3.47;2.57;;;18.50;99.90;;;;;;5099616;28;20464;-58
2023/05/07 07:23:00;;;;;;;3.47;3.17;;;18.70;99.90;;;;;;5099578;28;20431;-54
2023/05/07 07:25:29;;;;;;;11.57;3.67;;;18.90;99.90;;;;;;5099236;28;20462;-58
2023/05/07 07:27:56;;;;;;;4.50;4.10;;;19.00;99.90;;;;;;5098362;28;20471;-58
2023/05/07 07:30:23;;;;;;;3.63;2.90;;;19.10;99.90;;;;;;5098537;28;20770;-56
2023/05/07 07:32:51;;;;;;;5.53;2.37;;;19.10;99.90;;;;;;5098663;28;20456;-58
2023/05/07 07:35:18;;;;;;;4.40;3.37;;;19.10;99.90;;;;;;5099469;28;20563;-58
2023/05/07 07:37:45;;;;;;;3.50;3.20;;;19.20;99.90;;;;;;5098912;28;20809;-56
2023/05/07 07:40:13;;;;;;;3.17;2.93;;;19.50;99.90;;;;;;5098482;28;20886;-56
2023/05/07 07:42:42;;;;;;;4.90;3.97;;;19.70;99.90;;;;;;5097638;28;20492;-55
2023/05/07 07:45:09;;;;;;;3.20;2.90;;;20.00;99.90;;;;;;5097804;28;20738;-55
2023/05/07 07:47:37;;;;;;;3.73;3.03;;;20.20;99.90;;;;;;5097302;28;20552;-58
2023/05/07 07:50:04;;;;;;;3.50;2.90;;;20.60;99.90;;;;;;5097382;28;20464;-57
2023/05/07 07:52:32;;;;;;;2.90;2.57;;;20.50;99.90;;;;;;5097556;28;20905;-58
2023/05/07 07:54:59;;;;;;;4.20;3.50;;;20.50;99.90;;;;;;5097942;28;20460;-56
2023/05/07 07:57:26;;;;;;;4.47;2.73;;;20.60;99.90;;;;;;5098776;28;20508;-58
2023/05/07 07:59:55;;;;;;;3.93;3.20;;;20.80;99.90;;;;;;5098415;28;20460;-57
2023/05/07 08:02:22;;;;;;;3.00;2.70;;;21.20;99.90;;;;;;5098560;28;20566;-58
2023/05/07 08:04:49;;;;;;;3.47;2.77;;;21.20;99.90;;;;;;5098169;28;20944;-58
2023/05/07 08:07:18;;;;;;;7.00;3.47;;;21.40;99.90;;;;;;5099177;28;20929;-58
2023/05/07 08:09:45;;;;;;;4.07;3.60;;;21.50;99.90;;;;;;5098074;28;20465;-58
2023/05/07 08:12:13;;;;;;;2.97;2.70;;;21.70;99.90;;;;;;5098869;28;20456;-58
2023/05/07 08:14:40;;;;;;;3.37;3.07;;;21.80;99.90;;;;;;5098121;28;20460;-58
2023/05/07 08:17:10;;;;;;;3.60;3.30;;;21.60;99.90;;;;;;5098333;28;20469;-58
2023/05/07 08:19:37;;;;;;;4.00;3.10;;;21.50;99.90;;;;;;5098602;28;20819;-58
2023/05/07 08:22:05;;;;;;;3.70;3.00;;;21.00;99.90;;;;;;5097927;28;20467;-56
2023/05/07 08:24:32;;;;;;;3.07;2.87;;;21.00;99.90;;;;;;5098311;28;20464;-57
2023/05/07 08:26:59;;;;;;;4.00;3.60;;;21.60;99.90;;;;;;5098864;28;20561;-56
2023/05/07 08:29:27;;;;;;;3.10;2.80;;;21.60;99.90;;;;;;5097898;28;20789;-57
2023/05/07 08:31:54;;;;;;;4.20;2.90;;;21.50;99.90;;;;;;5097804;28;20576;-58
2023/05/07 08:34:23;;;;;;;2.93;2.60;;;22.00;99.90;;;;;;5095389;28;20450;-57
2023/05/07 08:36:50;;;;;;;2.87;2.43;;;22.20;99.90;;;;;;5097231;28;20460;-56
2023/05/07 08:39:17;;;;;;;3.43;3.13;;;22.30;99.90;;;;;;5098250;28;20460;-52
2023/05/07 08:41:46;;;;;;;3.50;3.20;;;22.40;99.90;;;;;;5097706;28;20562;-58
2023/05/07 08:44:15;;;;;;;2.83;2.63;;;22.30;99.90;;;;;;5098405;28;20456;-52
2023/05/07 08:46:43;;;;;;;3.10;2.80;;;22.70;99.90;;;;;;5098053;28;20876;-58
2023/05/07 08:49:10;;;;;;;3.03;2.47;;;22.90;99.90;;;;;;5098300;28;20464;-54
2023/05/07 08:51:39;;;;;;;2.90;2.70;;;23.00;99.90;;;;;;5097790;28;20464;-56
2023/05/07 08:54:07;;;;;;;4.83;3.13;;;23.30;99.90;;;;;;5097780;28;20757;-57
2023/05/07 08:56:35;;;;;;;2.90;2.50;;;23.20;99.90;;;;;;5097807;28;20460;-57
2023/05/07 08:59:03;;;;;;;4.37;2.37;;;23.20;99.90;;;;;;5097754;28;20928;-56
2023/05/07 09:01:30;;;;;;;2.57;2.37;;;23.30;99.90;;;;;;5097189;28;20439;-54
2023/05/07 09:03:58;;;;;;;4.03;2.27;;;23.30;99.90;;;;;;5096606;28;20423;-53
2023/05/07 09:06:26;;;;;;;2.47;2.27;;;23.60;99.90;;;;;;5094884;28;20458;-57
2023/05/07 09:08:57;;;;;;;2.80;2.57;;;23.80;99.90;;;;;;5095299;28;20475;-56
2023/05/07 09:11:25;;;;;;;3.13;2.93;;;23.90;99.90;;;;;;5096461;28;20452;-54
2023/05/07 09:13:55;;;;;;;3.57;3.03;;;24.00;99.90;;;;;;5095331;28;20460;-55
2023/05/07 09:16:23;;;;;;;3.63;2.50;;;23.80;99.90;;;;;;5095184;28;20500;-53
2023/05/07 09:18:53;;;;;;;3.00;2.70;;;23.60;99.90;;;;;;5094967;28;20471;-51
2023/05/07 09:21:22;;;;;;;2.30;2.10;;;23.60;99.90;;;;;;5096277;28;20503;-55
2023/05/07 09:23:51;;;;;;;2.60;2.40;;;23.60;99.90;;;;;;5096885;28;20507;-56
2023/05/07 09:26:22;;;;;;;2.73;2.50;;;23.30;99.90;;;;;;5095048;28;20460;-54
2023/05/07 09:28:49;;;;;;;3.03;2.70;;;23.20;99.90;;;;;;5095088;28;20753;-52
2023/05/07 09:31:16;;;;;;;2.87;2.20;;;23.00;99.90;;;;;;5094012;28;20579;-56
2023/05/07 09:33:44;;;;;;;3.00;2.80;;;23.50;99.90;;;;;;5084076;28;20424;-58
2023/05/07 09:36:11;;;;;;;2.77;2.57;;;24.10;99.90;;;;;;5074058;28;20487;-57
2023/05/07 09:38:39;;;;;;;3.83;2.43;;;24.20;99.90;;;;;;5072833;28;20500;-59
2023/05/07 09:41:07;;;;;;;2.70;2.50;;;24.60;99.90;;;;;;5072888;28;20465;-60
2023/05/07 09:43:37;;;;;;;2.97;2.67;;;25.00;99.90;;;;;;5073703;28;20473;-60
2023/05/07 09:46:07;;;;;;;2.73;2.53;;;25.20;99.90;;;;;;5074535;28;20468;-54
2023/05/07 09:48:39;;;;;;;2.40;2.20;;;25.30;99.90;;;;;;5075030;28;20677;-56
2023/05/07 09:51:22;;;;;;;2.50;2.30;;;25.70;99.90;;;;;;5074774;28;20469;-59
2023/05/07 09:53:51;;;;;;;3.03;2.80;;;25.90;99.90;;;;;;5075112;28;20465;-57
2023/05/07 09:56:19;;;;;;;2.60;2.40;;;26.00;99.90;;;;;;5076116;28;20556;-56
2023/05/07 09:58:49;;;;;;;2.60;2.10;;;25.90;99.90;;;;;;5074732;28;20561;-60
2023/05/07 10:01:19;;;;;;;2.90;2.60;;;25.40;99.90;;;;;;5074474;28;20530;-57
2023/05/07 10:03:46;;;;;;;3.30;2.70;;;24.70;99.90;;;;;;5073373;28;20461;-57
2023/05/07 10:06:15;;;;;;;2.60;2.40;;;24.20;99.90;;;;;;5074212;28;20842;-58
2023/05/07 10:08:44;;;;;;;2.50;2.30;;;24.10;99.90;;;;;;5074636;28;20542;-56
2023/05/07 10:11:11;;;;;;;3.23;2.93;;;23.80;99.90;;;;;;5075114;28;20782;-57
2023/05/07 10:13:39;;;;;;;3.13;2.83;;;23.60;99.90;;;;;;5076159;28;20555;-56
2023/05/07 10:16:08;;;;;;;3.53;2.87;;;23.50;99.90;;;;;;5075561;28;20443;-59
2023/05/07 10:18:35;;;;;;;3.63;2.57;;;23.30;99.90;;;;;;5076433;28;21116;-56
2023/05/07 10:21:07;;;;;;;3.40;3.10;;;23.00;99.90;;;;;;5076641;28;20560;-57
2023/05/07 10:23:35;;;;;;;2.73;2.40;;;22.90;99.90;;;;;;5075956;28;20466;-59
2023/05/07 10:26:05;;;;;;;3.13;2.93;;;22.50;99.90;;;;;;5075218;28;20465;-58
2023/05/07 10:28:37;;;;;;;4.57;2.67;;;22.30;99.90;;;;;;5074525;28;20555;-55
2023/05/07 10:31:19;;;;;;;4.00;3.00;;;22.50;99.90;;;;;;5074171;28;20550;-57
2023/05/07 10:33:51;;;;;;;3.40;2.70;;;22.70;99.90;;;;;;5073121;28;20465;-56
2023/05/07 10:36:19;;;;;;;3.23;2.93;;;22.90;99.90;;;;;;5073689;28;20457;-58
2023/05/07 10:38:47;;;;;;;3.07;2.80;;;23.00;99.90;;;;;;5077102;28;20485;-57
2023/05/07 10:41:16;;;;;;;2.47;2.20;;;23.10;99.90;;;;;;5077128;28;20464;-58
2023/05/07 10:43:45;;;;;;;3.43;3.13;;;23.10;99.90;;;;;;5078460;28;20432;-56
2023/05/07 10:46:16;;;;;;;10.20;2.87;;;22.50;99.90;;;;;;5079119;28;20819;-59
2023/05/07 10:49:12;;;;;;;3.17;2.40;;;22.60;99.90;;;;;;5078726;28;20548;-57
2023/05/07 10:51:39;;;;;;;3.17;2.40;;;22.50;99.90;;;;;;5075907;28;20457;-59
2023/05/07 10:54:24;;;;;;;3.00;2.70;;;22.40;99.90;;;;;;5078143;28;20926;-59
2023/05/07 10:56:52;;;;;;;2.67;2.47;;;22.20;99.90;;;;;;5076987;28;20457;-59
2023/05/07 10:59:43;;;;;;;3.53;2.90;;;22.20;99.90;;;;;;5078017;28;20510;-55
2023/05/07 11:02:13;;;;;;;3.13;2.87;;;21.80;99.90;;;;;;5077811;28;20966;-56
2023/05/07 11:04:41;;;;;;;2.53;2.33;;;21.70;99.90;;;;;;5077607;28;20440;-58
2023/05/07 11:07:30;;;;;;;3.13;2.80;;;21.50;99.90;;;;;;5078109;28;20882;-58
2023/05/07 11:10:03;;;;;;;5.90;3.20;;;21.40;99.90;;;;;;5077555;28;20520;-51
2023/05/07 11:12:55;;;;;;;5.07;3.53;;;21.20;99.90;;;;;;5076799;28;20875;-59
2023/05/07 11:15:43;;;;;;;6.80;3.50;;;20.70;99.90;;;;;;5067032;28;20925;-60
2023/05/07 11:18:13;;;;;;;4.40;3.70;;;20.20;99.90;;;;;;5057224;28;20501;-60
2023/05/07 11:20:52;;;;;;;5.17;3.80;;;20.00;99.90;;;;;;5057614;28;20470;-61
2023/05/07 11:24:07;;;;;;;5.50;3.30;;;19.90;99.90;;;;;;5058086;28;20458;-60
2023/05/07 11:26:46;;;;;;;3.70;3.20;;;19.60;99.90;;;;;;5077894;28;20461;-61
2023/05/07 11:29:15;;;;;;;6.07;3.60;;;19.50;99.90;;;;;;5077547;28;20517;-61
2023/05/07 11:31:43;;;;;;;3.93;3.60;;;19.30;99.90;;;;;;5077851;28;20492;-62
2023/05/07 11:34:13;;;;;;;4.20;3.30;;;19.30;99.90;;;;;;5077955;28;20511;-62
2023/05/07 11:36:45;;;;;;;6.10;3.63;;;19.20;99.90;;;;;;5076188;28;20457;-62
2023/05/07 11:39:27;;;;;;;3.50;3.20;;;19.00;99.90;;;;;;5077569;28;20493;-62
2023/05/07 11:41:55;;;;;;;5.10;3.97;;;18.90;99.90;;;;;;5073516;28;20932;-61
2023/05/07 11:44:22;;;;;;;4.40;4.00;;;18.70;99.90;;;;;;5074820;28;20449;-59
2023/05/07 11:46:50;;;;;;;4.13;3.47;;;18.70;99.90;;;;;;5074572;28;20453;-61
2023/05/07 11:49:19;;;;;;;4.90;3.20;;;18.70;99.90;;;;;;5073594;28;20532;-62
2023/05/07 11:51:46;;;;;;;6.43;3.67;;;18.70;99.90;;;;;;5072501;28;20515;-62
2023/05/07 11:54:17;;;;;;;3.90;3.30;;;18.80;99.90;;;;;;5070376;28;20444;-62
2023/05/07 11:56:47;;;;;;;4.23;3.87;;;19.00;99.90;;;;;;5071845;28;20519;-63
2023/05/07 11:59:19;;;;;;;6.93;3.43;;;18.80;99.90;;;;;;5073371;28;21111;-63
2023/05/07 12:01:48;;;;;;;5.10;3.30;;;18.70;99.90;;;;;;5073702;28;20461;-63
2023/05/07 12:04:20;;;;;;;3.50;2.97;;;18.70;99.90;;;;;;5073274;28;20464;-64
2023/05/07 12:06:50;;;;;;;5.50;3.33;;;18.80;99.90;;;;;;5075403;28;20554;-64
2023/05/07 12:09:18;;;;;;;4.00;3.67;;;19.00;99.90;;;;;;5075516;28;20458;-64
2023/05/07 12:11:47;;;;;;;6.30;4.53;;;19.00;99.90;;;;;;5077332;28;20465;-64
2023/05/07 12:14:15;;;;;;;6.30;4.37;;;19.00;99.90;;;;;;5077024;28;20505;-65
2023/05/07 12:16:43;;;;;;;5.73;4.17;;;19.20;99.90;;;;;;5077748;28;20802;-65
2023/05/07 12:19:12;;;;;;;6.50;5.10;;;19.30;99.90;;;;;;5077928;28;20492;-65
2023/05/07 12:21:39;;;;;;;5.93;5.43;;;19.30;99.90;;;;;;5077724;28;20500;-65
2023/05/07 12:24:09;;;;;;;7.03;5.93;;;19.10;99.90;;;;;;5078019;28;20552;-65
2023/05/07 12:26:40;;;;;;;5.63;5.03;;;18.90;99.90;;;;;;5077513;28;20503;-65
2023/05/07 12:29:07;;;;;;;6.10;5.50;;;19.00;99.90;;;;;;5077183;28;20436;-65
2023/05/07 12:31:34;;;;;;;6.00;5.40;;;19.00;99.90;;;;;;5093033;28;20486;-65
2023/05/07 12:34:02;;;;;;;6.70;6.10;;;19.10;99.90;;;;;;5098424;28;20901;-65
2023/05/07 12:36:38;;;;;;;8.03;6.57;;;19.10;99.90;;;;;;5097997;28;20482;-65
2023/05/07 12:39:06;;;;;;;7.17;6.03;;;19.10;99.90;;;;;;5096278;28;20492;-65
2023/05/07 12:41:37;;;;;;;7.50;6.90;;;19.00;99.90;;;;;;5096144;28;20461;-65
2023/05/07 12:44:06;;;;;;;9.60;7.67;;;19.00;99.90;;;;;;5096123;28;20510;-65
2023/05/07 12:46:39;;;;;;;8.70;7.90;;;18.90;99.90;;;;;;5095442;28;20521;-65
2023/05/07 12:49:06;;;;;;;7.70;7.03;;;18.60;99.90;;;;;;5094747;28;20575;-65
2023/05/07 12:51:36;;;;;;;8.70;7.87;;;18.50;99.90;;;;;;5094896;28;20495;-65
2023/05/07 12:54:03;;;;;;;8.37;7.67;;;18.50;1.00;;;;;;5095950;28;20519;-65
2023/05/07 12:56:36;;;;;;;7.63;6.83;;;18.60;1.00;;;;;;5095345;28;20805;-65